Oxnard, CA

8:12 PM PST on February 13, 2016 (GMT -0800)
MesoWest | | Change Station
CLOSE
Current Station
Personal Weather Station
Location: Oxnard, CA
Elevation: 77 ft
Nearby Weather Stations
Active Advisory: High Surf Advisory

Elev 77 ft 34.22 °N, 119.18 °W | Updated 1 hour ago

Clear
Clear
57.0 °F
Feels Like 57.0 °F
N
0.0
Wind Variable Wind from North
Gusts 0.0 mph

Today
High -- | Low -- °F
--% Chance of Precip.
Yesterday
High -- | Low -- °F
Precip. -- in
Pressure 30.06 in
Visibility 6.0 miles
Clouds Clear
Dew Point Not available.
Humidity Not available.
Rainfall in
Snow Depth Not available.
6:44 AM 5:38 PM
Waxing Crescent, 37% visible
METAR KOXR 140351Z 33004KT 6SM BR CLR 14/12 A3005 RMK AO2 SLP177 T01390117
Pressure 30.06 in
Visibility 6.0 miles
Clouds Clear
Dew Point Not available.
Humidity Not available.
Rainfall in
Snow Depth Not available.
6:44 AM 5:38 PM
Waxing Crescent, 37% visible
METAR KOXR 140351Z 33004KT 6SM BR CLR 14/12 A3005 RMK AO2 SLP177 T01390117

10-Day Weather Forecast

Almanac

Astronomy

Feb. 13, 2016 Rise Set
Actual Time
Civil Twilight
Nautical Twilight
Astronomical Twilight
Moon
Length of Visible Light
Length of Day
Tomorrow will be .
, % of the Moon is Illuminated

Today's Extremes

State Highs State Lows

Community

WunderPhotos

Upload Photos

1,892,743 photos uploaded!

WunderBlog® & News

Nearby

Air Quality

  Air Quality AQ Index Pollutant
Not available.

Snow Depth

Station Depth Elevation

Earthquake Activity

City Distance Mag. Time & Date
Minimum magnitude displayed is 2.5.

Coastal Water Temperatures

Place Temperature

Stations

Nearby Weather Stations

Station Location Temp. Windchill Dew Point Humidity Wind Precip. Elev Updated Type
                   

Watches & Warnings

High Surf Advisory
Issued: 12:04 PM PST Feb. 13, 2016 – National Weather Service

... High surf advisory now in effect until 6 PM PST Sunday...

* surf... surf of 7 to 10 feet today will subside to 5 to 8 feet on
Sunday.

* Impacts... large waves and strong rip currents will increase the
risk of ocean drowning. Sneaker waves can suddenly wash people
off of beaches and rock jetties. Minor beach erosion is
possible.

* Locations... surf will be highest on exposed west facing
beaches.

Precautionary/preparedness actions...

A high surf advisory means that high surf and rip currents will
make swimming and rock jetties dangerous.

Remember... if caught in a rip current... swim parallel to shore
until you are free of the powerful current. Always swim near a
lifeguard.